Time;durP1;ratioP1;P1;durP2;ratioP2;P2;SDS_P1;SDS_P2;PMS_P1;PMS_P2;Temp;Humidity;BMP_temperature;BMP_pressure;BME280_temperature;BME280_humidity;BME280_pressure;Samples;Min_cycle;Max_cycle;Signal;HPM_P1;HPM_P2
2022/03/21 00:04:51;;;;;;;24.15;13.77;;;;;;;6.72;60.41;101755.34;20887064;28;20052;-67
2022/03/21 00:14:53;;;;;;;26.80;14.45;;;;;;;6.42;61.91;101756.41;20887951;28;20049;-67
2022/03/21 00:24:55;;;;;;;25.60;14.75;;;;;;;6.09;64.30;101771.22;20886666;28;20099;-67
2022/03/21 00:34:56;;;;;;;28.40;15.38;;;;;;;5.93;66.31;101761.25;20885631;28;20486;-67
2022/03/21 00:44:58;;;;;;;26.00;14.55;;;;;;;5.73;68.12;101765.94;20883149;28;20465;-67
2022/03/21 00:54:59;;;;;;;25.33;15.07;;;;;;;5.55;67.79;101766.31;20893512;28;20045;-66
2022/03/21 01:05:02;;;;;;;27.70;14.70;;;;;;;5.33;70.28;101765.75;20897436;28;20083;-67
2022/03/21 01:15:04;;;;;;;26.35;14.27;;;;;;;5.07;70.70;101777.97;20899829;28;20106;-66
2022/03/21 01:25:06;;;;;;;30.70;15.55;;;;;;;4.95;72.03;101776.75;20898925;28;20127;-68
2022/03/21 01:35:08;;;;;;;26.50;14.73;;;;;;;4.82;71.74;101788.47;20898289;28;20040;-67
2022/03/21 01:45:10;;;;;;;26.80;14.77;;;;;;;4.68;73.00;101788.06;20897307;28;20098;-66
2022/03/21 02:05:38;;;;;;;31.23;16.90;;;;;;;4.29;74.47;101805.84;20892195;28;20098;-67
2022/03/21 02:15:40;;;;;;;34.70;17.27;;;;;;;4.13;75.19;101807.06;20892212;28;20041;-67
2022/03/21 02:25:43;;;;;;;31.33;16.20;;;;;;;4.11;75.20;101798.34;20892664;28;20045;-66
2022/03/21 02:35:49;;;;;;;32.15;17.00;;;;;;;4.16;74.82;101811.47;20892545;28;20044;-67
2022/03/21 02:45:51;;;;;;;29.92;16.17;;;;;;;4.03;76.27;101805.00;20892757;28;20063;-66
2022/03/21 02:55:54;;;;;;;35.88;16.83;;;;;;;4.05;76.52;101804.22;20892225;28;20107;-66
2022/03/21 03:05:56;;;;;;;29.92;15.73;;;;;;;4.04;77.09;101815.41;20890258;28;20044;-66
2022/03/21 03:15:58;;;;;;;30.73;16.45;;;;;;;4.15;76.11;101817.47;20889580;28;20052;-65
2022/03/21 03:26:02;;;;;;;27.40;15.48;;;;;;;4.17;75.38;101824.50;20887940;28;20049;-66
2022/03/21 03:36:04;;;;;;;33.47;17.73;;;;;;;4.21;77.27;101834.09;20888556;28;20063;-67
2022/03/21 03:46:05;;;;;;;31.25;17.25;;;;;;;4.32;76.94;101835.38;20888523;28;20053;-66
2022/03/21 03:56:08;;;;;;;32.40;17.27;;;;;;;4.48;77.08;101836.72;20890292;28;20045;-66
2022/03/21 04:06:15;;;;;;;30.35;17.73;;;;;;;4.61;75.04;101838.00;20885566;28;20049;-67
2022/03/21 04:16:16;;;;;;;32.42;17.95;;;;;;;4.84;74.56;101850.00;20887753;28;20053;-67
2022/03/21 04:26:19;;;;;;;28.27;15.90;;;;;;;4.87;70.72;101847.47;20888157;28;20132;-67
2022/03/21 04:36:20;;;;;;;30.27;17.15;;;;;;;4.87;72.94;101854.38;20901998;28;20059;-66
2022/03/21 04:46:22;;;;;;;33.28;17.75;;;;;;;4.77;71.82;101865.31;20901754;28;20049;-67
2022/03/21 04:56:23;;;;;;;31.90;16.25;;;;;;;4.66;74.13;101884.84;20902252;28;20045;-66
2022/03/21 05:06:25;;;;;;;31.38;16.48;;;;;;;4.66;76.52;101888.31;20900058;28;20056;-66
2022/03/21 05:16:26;;;;;;;28.95;16.55;;;;;;;4.77;75.16;101897.31;20899363;28;20054;-66
2022/03/21 05:36:48;;;;;;;31.95;16.73;;;;;;;4.90;72.17;101901.19;20895399;28;20103;-66
2022/03/21 05:46:50;;;;;;;29.10;16.58;;;;;;;5.06;71.31;101910.34;20897564;28;20049;-67
2022/03/21 05:56:51;;;;;;;28.45;15.82;;;;;;;5.20;69.94;101919.44;20896621;28;20608;-66
2022/03/21 06:06:53;;;;;;;27.63;15.50;;;;;;;5.39;67.88;101929.53;20895454;28;20045;-66
2022/03/21 06:16:54;;;;;;;27.95;14.68;;;;;;;5.59;65.62;101942.22;20896469;28;20713;-68
2022/03/21 06:26:56;;;;;;;22.90;12.88;;;;;;;5.68;63.61;101955.50;20893195;28;20045;-67
2022/03/21 06:36:58;;;;;;;25.20;14.20;;;;;;;5.89;60.85;101952.63;20892752;28;20457;-68
2022/03/21 06:46:59;;;;;;;24.90;14.27;;;;;;;6.01;61.24;101965.13;20892767;28;20053;-67
2022/03/21 06:57:01;;;;;;;26.63;13.73;;;;;;;6.39;56.76;101982.66;20882266;28;20102;-66
2022/03/21 07:07:03;;;;;;;27.13;13.80;;;;;;;6.65;54.52;101992.88;20879592;28;20091;-67
2022/03/21 07:17:05;;;;;;;21.80;12.88;;;;;;;6.78;54.22;101994.94;20885869;28;20052;-67
2022/03/21 07:27:07;;;;;;;21.67;11.70;;;;;;;7.01;54.84;102012.88;20872291;28;20052;-66
2022/03/21 07:37:08;;;;;;;25.75;13.18;;;;;;;7.20;52.34;102015.09;20867862;28;20107;-67
2022/03/21 07:47:22;;;;;;;23.60;12.45;;;;;;;7.48;51.30;102010.53;20875491;28;20103;-66
2022/03/21 07:57:26;;;;;;;24.27;13.07;;;;;;;7.64;53.24;102017.84;20888377;28;20052;-66
2022/03/21 08:07:28;;;;;;;24.83;13.70;;;;;;;7.82;51.35;102010.41;20883543;28;20041;-67
2022/03/21 08:17:30;;;;;;;24.05;13.00;;;;;;;8.07;51.10;102021.34;20884442;28;20455;-66
2022/03/21 08:27:32;;;;;;;24.17;14.02;;;;;;;8.40;50.70;102019.44;20882843;28;20106;-67
2022/03/21 08:37:34;;;;;;;28.77;15.40;;;;;;;8.67;49.44;102019.09;20873936;28;20056;-66
2022/03/21 08:47:37;;;;;;;20.85;12.70;;;;;;;8.70;49.34;102019.13;20883252;28;20044;-66
2022/03/21 08:57:39;;;;;;;21.13;13.13;;;;;;;9.08;48.26;102011.06;20879485;28;20049;-66
2022/03/21 09:07:41;;;;;;;27.70;14.25;;;;;;;9.50;48.74;102004.75;20880908;28;20049;-66
2022/03/21 09:17:43;;;;;;;28.25;15.95;;;;;;;9.80;47.42;102003.41;20889364;28;20110;-66
2022/03/21 09:27:45;;;;;;;22.70;13.60;;;;;;;10.20;47.46;102004.75;20895489;28;20053;-67
2022/03/21 09:37:47;;;;;;;22.30;13.55;;;;;;;10.46;45.87;102005.09;20894603;28;20107;-67
2022/03/21 09:58:10;;;;;;;23.30;14.15;;;;;;;10.99;45.21;101984.63;20891438;28;20049;-68
2022/03/21 10:08:25;;;;;;;25.70;14.38;;;;;;;11.49;45.47;101965.72;20892026;28;20083;-67
2022/03/21 10:18:26;;;;;;;24.80;14.93;;;;;;;11.90;45.33;101966.84;20890213;28;20079;-68
2022/03/21 10:28:35;;;;;;;23.50;13.52;;;;;;;12.04;44.62;101966.03;20890103;28;20321;-67
2022/03/21 10:38:36;;;;;;;30.98;15.23;;;;;;;12.37;42.87;101953.84;20885993;28;20103;-65
2022/03/21 10:49:06;;;;;;;26.92;15.98;;;;;;;12.85;41.61;101949.50;20887676;28;20051;-65
2022/03/21 10:59:08;;;;;;;29.02;16.55;;;;;;;12.99;41.39;101939.88;20877704;28;20046;-65
2022/03/21 11:09:09;;;;;;;28.70;16.92;;;;;;;13.29;42.26;101930.19;20887822;28;20640;-65
2022/03/21 11:19:11;;;;;;;26.40;15.52;;;;;;;13.57;41.08;101921.34;20886814;28;20103;-66
2022/03/21 11:29:18;;;;;;;26.17;13.48;;;;;;;13.56;42.31;101911.69;20887116;28;20103;-65
2022/03/21 11:39:20;;;;;;;24.27;14.13;;;;;;;13.84;42.22;101901.03;20885014;28;20041;-65
2022/03/21 11:49:22;;;;;;;27.27;14.70;;;;;;;14.11;40.32;101889.47;20885991;28;20418;-66
2022/03/21 11:59:33;;;;;;;26.23;13.52;;;;;;;14.21;40.40;101875.34;20883046;28;20544;-66
2022/03/21 12:09:45;;;;;;;25.65;12.90;;;;;;;14.70;40.35;101868.81;20836527;28;20461;-66
2022/03/21 12:20:01;;;;;;;22.50;11.23;;;;;;;14.86;39.20;101851.97;20849763;28;20537;-66
2022/03/21 12:30:31;;;;;;;;;;;;;;;15.13;38.85;101842.88;20840059;28;20064;-66
2022/03/21 12:40:35;;;;;;;20.13;11.68;;;;;;;15.28;38.53;101837.44;20838396;28;20024;-66
2022/03/21 12:50:37;;;;;;;21.38;11.25;;;;;;;15.43;38.93;101831.09;20855010;28;20531;-66
2022/03/21 13:00:42;;;;;;;20.52;10.45;;;;;;;15.64;39.07;101819.41;20849808;28;20656;-66
2022/03/21 13:10:44;;;;;;;19.45;10.70;;;;;;;15.63;37.88;101812.34;20851997;28;20796;-66
2022/03/21 13:20:47;;;;;;;19.80;9.10;;;;;;;15.80;38.88;101798.91;20856465;28;20041;-66
2022/03/21 13:31:03;;;;;;;15.25;9.82;;;;;;;15.97;36.35;101790.75;20849342;28;20045;-65
2022/03/21 13:41:14;;;;;;;19.30;10.85;;;;;;;15.93;38.69;101779.34;20852817;28;20072;-66
2022/03/21 13:51:26;;;;;;;17.55;10.93;;;;;;;16.47;36.76;101776.66;20850648;28;20098;-66
2022/03/21 14:01:29;;;;;;;16.23;10.93;;;;;;;16.78;35.83;101760.28;20848996;28;20419;-66
2022/03/21 14:11:31;;;;;;;19.05;11.05;;;;;;;16.61;36.24;101757.91;20845231;28;20045;-66
2022/03/21 14:21:33;;;;;;;16.25;9.88;;;;;;;16.76;35.65;101752.34;20846758;28;20068;-65
2022/03/21 14:31:35;;;;;;;14.20;8.80;;;;;;;16.66;36.39;101746.31;20848494;28;20041;-66
2022/03/21 14:41:37;;;;;;;15.48;9.05;;;;;;;16.53;36.40;101741.28;20845483;28;20099;-65
2022/03/21 14:51:38;;;;;;;17.88;10.60;;;;;;;16.57;35.78;101740.34;20843639;28;20478;-65
2022/03/21 15:01:40;;;;;;;21.17;11.57;;;;;;;16.33;36.98;101739.03;20851683;28;20095;-65
2022/03/21 15:11:42;;;;;;;20.98;12.60;;;;;;;16.02;38.61;101734.28;20843963;28;20040;-65
2022/03/21 15:21:47;;;;;;;24.48;13.65;;;;;;;16.10;37.17;101731.53;20842528;28;20082;-65
2022/03/21 15:31:48;;;;;;;26.67;11.70;;;;;;;15.69;37.90;101724.28;20839801;28;20041;-65
2022/03/21 15:41:50;;;;;;;22.25;10.88;;;;;;;15.78;37.28;101726.78;20839701;28;20053;-65
2022/03/21 15:51:51;;;;;;;22.00;11.30;;;;;;;15.52;38.00;101725.38;20851052;28;20091;-66
2022/03/21 16:01:53;;;;;;;21.55;10.50;;;;;;;15.50;38.06;101721.88;20842631;28;20049;-64
2022/03/21 16:11:55;;;;;;;19.08;10.45;;;;;;;15.44;37.78;101718.47;20840000;28;20041;-64
2022/03/21 16:21:56;;;;;;;20.85;11.73;;;;;;;15.26;37.98;101724.88;20851597;28;20053;-64
2022/03/21 16:32:06;;;;;;;20.45;12.40;;;;;;;15.06;38.93;101725.16;20853402;28;20042;-66
2022/03/21 16:42:11;;;;;;;22.83;13.55;;;;;;;14.82;39.58;101723.69;20855181;28;20053;-63
2022/03/21 16:52:15;;;;;;;27.48;14.65;;;;;;;14.76;39.02;101722.00;20858369;28;20441;-65
2022/03/21 17:02:16;;;;;;;24.77;14.15;;;;;;;14.49;38.60;101717.91;20851810;28;20052;-64
2022/03/21 17:12:18;;;;;;;25.27;13.73;;;;;;;14.23;38.62;101714.63;20858396;28;20139;-64
2022/03/21 17:32:40;;;;;;;24.88;12.68;;;;;;;13.53;40.00;101727.50;20851732;28;20048;-65
2022/03/21 17:42:41;;;;;;;21.58;12.90;;;;;;;13.31;40.23;101736.41;20851328;28;20580;-66
2022/03/21 17:52:43;;;;;;;25.85;13.82;;;;;;;13.23;39.54;101741.72;20814929;28;20049;-66
2022/03/21 18:02:45;;;;;;;22.13;13.63;;;;;;;12.82;41.12;101747.09;20809923;28;20800;-65
2022/03/21 18:12:46;;;;;;;24.15;14.50;;;;;;;12.61;41.06;101752.44;20811433;28;20049;-66
2022/03/21 18:22:48;;;;;;;28.77;13.73;;;;;;;12.48;41.25;101768.22;20813034;28;20521;-65
2022/03/21 18:32:50;;;;;;;26.23;13.40;;;;;;;12.34;40.84;101769.97;20805461;28;20736;-65
2022/03/21 18:42:51;;;;;;;33.30;16.70;;;;;;;12.16;40.70;101781.38;20812243;28;20114;-66
2022/03/21 18:52:54;;;;;;;42.30;23.88;;;;;;;11.87;41.88;101793.59;20810683;28;20131;-67
2022/03/21 19:02:55;;;;;;;35.75;20.52;;;;;;;11.68;41.91;101800.53;20802619;28;20169;-66
2022/03/21 19:12:57;;;;;;;51.20;33.40;;;;;;;11.50;42.71;101804.88;20797618;28;20045;-67
2022/03/21 19:22:59;;;;;;;27.75;16.45;;;;;;;11.47;42.26;101812.72;20805009;28;20099;-67
2022/03/21 19:33:00;;;;;;;31.88;19.38;;;;;;;11.18;42.17;101822.22;20802793;28;20041;-66
2022/03/21 19:43:03;;;;;;;23.20;13.80;;;;;;;11.23;41.56;101821.38;20802964;28;21018;-67
2022/03/21 19:53:05;;;;;;;22.42;14.13;;;;;;;11.04;41.01;101828.28;20806376;28;20103;-67
2022/03/21 20:03:07;;;;;;;27.52;15.68;;;;;;;10.80;42.72;101841.25;20796511;28;20080;-65
2022/03/21 20:13:18;;;;;;;28.92;14.18;;;;;;;10.61;42.50;101847.22;20802726;28;20057;-65
2022/03/21 20:23:23;;;;;;;28.38;14.23;;;;;;;10.31;43.81;101846.13;20795797;28;20085;-65
2022/03/21 20:33:24;;;;;;;24.70;14.50;;;;;;;9.78;47.30;101856.91;20796008;28;20132;-66
2022/03/21 20:43:27;;;;;;;28.30;16.60;;;;;;;9.43;47.72;101857.34;20794157;28;20400;-66
2022/03/21 20:53:29;;;;;;;30.48;16.85;;;;;;;9.35;47.09;101859.03;20799560;28;20073;-66
2022/03/21 21:03:30;;;;;;;27.13;15.00;;;;;;;9.28;47.48;101851.94;20803175;28;20091;-65
2022/03/21 21:13:34;;;;;;;26.58;15.15;;;;;;;8.87;49.98;101857.50;20807572;28;20266;-66
2022/03/21 21:23:36;;;;;;;28.30;15.38;;;;;;;8.39;52.13;101863.72;20815624;28;20228;-64
2022/03/21 21:33:38;;;;;;;31.77;15.80;;;;;;;8.18;51.90;101876.34;20812023;28;20522;-64
2022/03/21 21:43:40;;;;;;;24.75;14.82;;;;;;;7.89;53.75;101881.91;20810348;28;20134;-63
2022/03/21 21:53:43;;;;;;;28.17;14.57;;;;;;;7.81;53.22;101874.78;20807679;28;20580;-64
2022/03/21 22:03:44;;;;;;;25.40;14.02;;;;;;;7.48;55.53;101875.00;20814035;28;20080;-64
2022/03/21 22:13:47;;;;;;;25.88;13.95;;;;;;;7.42;54.24;101875.72;20812155;28;20493;-64
2022/03/21 22:23:48;;;;;;;28.10;15.27;;;;;;;7.21;55.45;101881.38;20848876;28;20186;-64
2022/03/21 22:33:50;;;;;;;23.50;13.48;;;;;;;7.06;55.92;101881.91;20854331;28;20558;-64
2022/03/21 22:54:12;;;;;;;28.30;14.07;;;;;;;6.57;60.20;101885.13;20840576;28;20048;-63
2022/03/21 23:04:14;;;;;;;27.70;14.73;;;;;;;6.45;57.84;101884.78;20854391;28;20457;-64
2022/03/21 23:14:15;;;;;;;30.67;15.10;;;;;;;6.52;54.14;101879.78;20847116;28;20083;-63
2022/03/21 23:24:26;;;;;;;25.52;14.15;;;;;;;6.58;52.77;101889.47;20850168;28;20561;-63
2022/03/21 23:34:27;;;;;;;26.13;13.85;;;;;;;6.80;50.66;101889.13;20852026;28;20494;-64
2022/03/21 23:44:29;;;;;;;26.38;13.15;;;;;;;6.92;49.18;101884.22;20846408;28;20131;-63
2022/03/21 23:54:32;;;;;;;23.92;13.32;;;;;;;6.88;48.82;101882.38;20847397;28;20044;-64
